Time;durP1;ratioP1;P1;durP2;ratioP2;P2;SDS_P1;SDS_P2;PMS_P1;PMS_P2;Temp;Humidity;BMP_temperature;BMP_pressure;BME280_temperature;BME280_humidity;BME280_pressure;Samples;Min_cycle;Max_cycle;Signal;HPM_P1;HPM_P2
2021/07/17 00:01:16;;;;;;;21.63;19.18;;;;;;;21.06;77.85;100448.87;128191;1098;22381;-76
2021/07/17 00:03:46;;;;;;;23.93;20.33;;;;;;;21.06;77.99;100454.24;128066;1098;22401;-75
2021/07/17 00:06:15;;;;;;;20.18;17.90;;;;;;;21.06;77.93;100466.83;128225;1098;22378;-76
2021/07/17 00:08:46;;;;;;;22.35;20.28;;;;;;;21.06;78.15;100462.30;128208;1098;22382;-76
2021/07/17 00:11:17;;;;;;;20.65;18.38;;;;;;;21.04;78.17;100460.89;128241;1098;22383;-76
2021/07/17 00:13:47;;;;;;;20.33;18.23;;;;;;;21.00;78.17;100457.86;128246;1098;22749;-75
2021/07/17 00:16:25;;;;;;;21.93;19.60;;;;;;;20.98;77.98;100462.63;128064;1098;24275;-77
2021/07/17 00:18:57;;;;;;;22.20;19.88;;;;;;;20.97;78.32;100457.51;128209;1098;23167;-75
2021/07/17 00:21:29;;;;;;;21.60;19.45;;;;;;;20.96;78.01;100466.59;128040;1098;22427;-76
2021/07/17 00:23:58;;;;;;;23.08;20.75;;;;;;;20.95;78.08;100462.28;128043;1098;24534;-76
2021/07/17 00:26:28;;;;;;;21.63;19.73;;;;;;;20.93;78.40;100461.72;128011;1098;24374;-76
2021/07/17 00:28:57;;;;;;;28.95;22.05;;;;;;;20.91;78.33;100461.94;128628;1098;24521;-76
2021/07/17 00:31:27;;;;;;;24.43;22.00;;;;;;;20.91;78.37;100459.25;128307;1101;22379;-78
2021/07/17 00:33:57;;;;;;;26.03;23.18;;;;;;;20.89;78.47;100455.97;127903;1101;22823;-76
2021/07/17 00:36:27;;;;;;;23.93;21.83;;;;;;;20.86;78.62;100457.28;127928;1099;22403;-76
2021/07/17 00:38:57;;;;;;;24.23;21.93;;;;;;;20.84;78.37;100461.23;127949;1100;22404;-76
2021/07/17 00:41:26;;;;;;;23.53;21.53;;;;;;;20.83;78.33;100446.19;127940;1101;22391;-77
2021/07/17 00:43:56;;;;;;;26.50;24.03;;;;;;;20.81;78.48;100451.77;127919;1101;22382;-77
2021/07/17 00:46:28;;;;;;;27.50;24.53;;;;;;;20.79;78.38;100453.05;127914;1100;22830;-77
2021/07/17 00:48:57;;;;;;;25.20;22.98;;;;;;;20.77;78.54;100452.48;127940;1101;22401;-77
2021/07/17 00:51:27;;;;;;;26.20;23.38;;;;;;;20.74;78.94;100443.02;127927;1100;24521;-77
2021/07/17 00:53:57;;;;;;;25.60;22.93;;;;;;;20.72;78.68;100444.30;127894;1101;22382;-77
2021/07/17 00:56:27;;;;;;;25.23;22.50;;;;;;;20.69;78.49;100440.20;128018;1098;24275;-76
2021/07/17 00:59:00;;;;;;;25.23;22.93;;;;;;;20.66;78.31;100441.50;128018;1098;22440;-76
2021/07/17 01:01:31;;;;;;;25.13;22.43;;;;;;;20.64;78.66;100443.59;128042;1098;22392;-75
2021/07/17 01:04:02;;;;;;;26.53;23.85;;;;;;;20.62;78.76;100436.81;128035;1098;24275;-76
2021/07/17 01:06:32;;;;;;;25.48;22.83;;;;;;;20.59;78.61;100440.80;128045;1098;23235;-76
2021/07/17 01:09:02;;;;;;;23.75;21.53;;;;;;;20.56;78.77;100446.63;128225;1098;22378;-76
2021/07/17 01:11:31;;;;;;;23.60;21.20;;;;;;;20.54;78.40;100442.53;128042;1098;22382;-76
2021/07/17 01:14:01;;;;;;;23.75;21.58;;;;;;;20.53;78.86;100441.72;127977;1098;25073;-76
2021/07/17 01:16:32;;;;;;;22.85;20.73;;;;;;;20.51;79.00;100443.80;128014;1098;24275;-76
2021/07/17 01:19:02;;;;;;;;;;;;;;;20.43;78.90;100446.81;128019;1098;22383;-76
2021/07/17 01:21:32;;;;;;;23.13;20.90;;;;;;;20.38;79.13;100452.03;128041;1098;21276;-76
2021/07/17 01:24:02;;;;;;;23.70;21.53;;;;;;;20.37;79.07;100442.36;128018;1098;22411;-76
2021/07/17 01:26:32;;;;;;;23.50;21.23;;;;;;;20.34;79.16;100450.86;128032;1098;22395;-77
2021/07/17 01:29:01;;;;;;;22.80;20.77;;;;;;;20.34;79.32;100448.18;128001;1098;22385;-77
2021/07/17 01:31:31;;;;;;;21.03;19.08;;;;;;;20.33;79.14;100449.23;128243;1098;22388;-77
2021/07/17 01:34:01;;;;;;;21.53;19.33;;;;;;;20.31;79.51;100449.45;128237;1098;24617;-77
2021/07/17 01:36:30;;;;;;;20.83;18.28;;;;;;;20.30;79.31;100450.50;128194;1098;22438;-76
2021/07/17 01:39:00;;;;;;;20.30;18.13;;;;;;;20.30;79.58;100452.38;128052;1098;24604;-76
2021/07/17 01:41:29;;;;;;;20.33;17.95;;;;;;;20.30;79.53;100460.42;128188;1098;22823;-76
2021/07/17 01:43:59;;;;;;;20.05;17.75;;;;;;;20.30;79.51;100460.42;128218;1098;22404;-76
2021/07/17 01:46:28;;;;;;;19.93;18.03;;;;;;;20.28;79.67;100454.45;128019;1098;22670;-77
2021/07/17 01:48:58;;;;;;;21.53;19.38;;;;;;;20.26;79.26;100448.48;128024;1098;22573;-77
2021/07/17 01:51:28;;;;;;;22.03;19.77;;;;;;;20.25;79.30;100446.86;128028;1098;22391;-75
2021/07/17 01:53:58;;;;;;;20.67;18.77;;;;;;;20.23;79.46;100439.06;128069;1098;22389;-76
2021/07/17 01:56:28;;;;;;;19.50;17.43;;;;;;;20.21;79.41;100433.91;128035;1098;22382;-76
2021/07/17 01:58:57;;;;;;;22.93;19.08;;;;;;;20.19;79.64;100425.29;128038;1096;22385;-75
2021/07/17 02:01:27;;;;;;;21.83;19.70;;;;;;;20.20;79.65;100428.78;128234;1098;22398;-75
2021/07/17 02:03:57;;;;;;;19.87;17.93;;;;;;;20.20;79.75;100434.15;127979;1098;22401;-76
2021/07/17 02:06:28;;;;;;;19.08;17.25;;;;;;;20.22;80.00;100429.36;128246;1098;22382;-76
2021/07/17 02:08:58;;;;;;;18.40;16.70;;;;;;;20.23;80.16;100431.02;128262;1098;24511;-76
2021/07/17 02:11:27;;;;;;;18.65;16.83;;;;;;;20.24;80.05;100432.64;128064;1098;22397;-76
2021/07/17 02:13:57;;;;;;;20.80;18.50;;;;;;;20.27;80.01;100428.69;128224;1098;22401;-76
2021/07/17 02:16:27;;;;;;;19.85;17.95;;;;;;;20.26;80.06;100422.51;128039;1098;24537;-77
2021/07/17 02:19:17;;;;;;;19.37;17.30;;;;;;;20.27;79.87;100415.27;128236;1098;22390;-76
2021/07/17 02:21:52;;;;;;;20.35;17.58;;;;;;;20.27;80.24;100418.77;128258;1098;22383;-76
2021/07/17 02:24:23;;;;;;;20.98;17.58;;;;;;;20.28;80.15;100425.76;128288;1098;22379;-76
2021/07/17 02:26:52;;;;;;;19.93;17.73;;;;;;;20.30;80.11;100429.05;128200;1097;24458;-76
2021/07/17 02:29:22;;;;;;;19.15;17.13;;;;;;;20.32;80.34;100428.80;128072;1098;22417;-76
2021/07/17 02:31:51;;;;;;;19.35;17.33;;;;;;;20.32;80.24;100426.12;128214;1098;24521;-76
2021/07/17 02:34:21;;;;;;;19.10;16.38;;;;;;;20.33;79.92;100438.50;128040;1098;22389;-75
2021/07/17 02:36:51;;;;;;;20.13;18.00;;;;;;;20.32;79.83;100434.98;128022;1098;24084;-76
2021/07/17 02:39:21;;;;;;;18.58;16.88;;;;;;;20.30;79.62;100433.59;128138;1098;22370;-77
2021/07/17 02:41:50;;;;;;;18.00;16.15;;;;;;;20.28;79.63;100436.49;128308;1098;22380;-77
2021/07/17 02:44:19;;;;;;;20.03;18.03;;;;;;;20.28;79.93;100441.05;128044;1098;23144;-77
2021/07/17 02:46:50;;;;;;;24.63;20.88;;;;;;;20.28;79.92;100449.09;128068;1098;22395;-77
2021/07/17 02:49:20;;;;;;;22.38;19.60;;;;;;;20.25;80.00;100436.13;128082;1098;24275;-76
2021/07/17 02:51:49;;;;;;;20.00;17.88;;;;;;;20.24;79.91;100448.73;128043;1098;22420;-76
2021/07/17 02:54:19;;;;;;;20.55;17.65;;;;;;;20.26;79.98;100451.17;128043;1098;22481;-79
2021/07/17 02:56:49;;;;;;;18.53;16.77;;;;;;;20.29;80.39;100453.40;128175;1098;22404;-77
2021/07/17 02:59:18;;;;;;;19.00;17.30;;;;;;;20.30;80.26;100445.14;128207;1098;22670;-77
2021/07/17 03:01:48;;;;;;;18.90;17.20;;;;;;;20.32;80.25;100447.58;128021;1098;22492;-77
2021/07/17 03:04:18;;;;;;;18.85;16.95;;;;;;;20.35;80.51;100453.30;128224;1098;23162;-76
2021/07/17 03:06:47;;;;;;;18.73;16.93;;;;;;;20.40;80.13;100445.39;128203;1097;22383;-77
2021/07/17 03:09:17;;;;;;;18.73;16.60;;;;;;;20.42;80.06;100445.15;128132;1098;22397;-77
2021/07/17 03:11:47;;;;;;;18.97;17.10;;;;;;;20.45;80.11;100447.38;128270;1098;22405;-75
2021/07/17 03:14:17;;;;;;;18.23;16.58;;;;;;;20.47;80.76;100447.97;128210;1098;22386;-76
2021/07/17 03:16:46;;;;;;;17.93;16.00;;;;;;;20.51;80.19;100449.17;128293;1098;23144;-77
2021/07/17 03:19:16;;;;;;;17.93;16.20;;;;;;;20.56;80.23;100451.15;128093;1098;22405;-77
2021/07/17 03:21:45;;;;;;;19.60;16.35;;;;;;;20.60;80.07;100452.34;128203;1098;22379;-77
2021/07/17 03:24:15;;;;;;;19.85;16.35;;;;;;;20.64;79.90;100454.33;128246;1098;22397;-77
2021/07/17 03:26:44;;;;;;;20.35;17.30;;;;;;;20.69;79.91;100445.56;128010;1098;22368;-76
2021/07/17 03:29:14;;;;;;;19.28;17.28;;;;;;;20.73;79.78;100438.70;128232;1098;22402;-78
2021/07/17 03:31:44;;;;;;;18.35;15.28;;;;;;;20.77;79.79;100439.06;128017;1096;22413;-77
2021/07/17 03:34:13;;;;;;;27.95;24.40;;;;;;;20.80;79.48;100430.54;128005;1098;22391;-76
2021/07/17 03:36:43;;;;;;;25.40;18.50;;;;;;;20.83;79.38;100436.27;128269;1098;24215;-76
2021/07/17 03:39:13;;;;;;;22.43;16.98;;;;;;;20.86;79.65;100434.98;128200;1098;22391;-76
2021/07/17 03:41:43;;;;;;;17.93;16.13;;;;;;;20.87;79.39;100450.84;128004;1098;22389;-77
2021/07/17 03:44:13;;;;;;;18.18;16.38;;;;;;;20.89;79.27;100439.86;128223;1098;24265;-77
2021/07/17 03:46:46;;;;;;;18.30;16.40;;;;;;;20.91;79.19;100445.83;128255;1098;24266;-76
2021/07/17 03:49:15;;;;;;;20.43;17.10;;;;;;;20.93;79.54;100442.92;128210;1098;22403;-75
2021/07/17 03:51:44;;;;;;;23.38;18.40;;;;;;;20.92;79.09;100444.77;128201;1098;24266;-76
2021/07/17 03:54:15;;;;;;;22.70;20.55;;;;;;;20.95;79.26;100432.75;128237;1098;22394;-76
2021/07/17 03:56:44;;;;;;;26.08;21.63;;;;;;;20.97;79.36;100436.84;128267;1098;25037;-75
2021/07/17 03:59:14;;;;;;;21.23;17.38;;;;;;;21.02;79.21;100444.18;128179;1098;22379;-75
2021/07/17 04:01:44;;;;;;;22.28;17.18;;;;;;;21.05;79.45;100443.72;128233;1098;24185;-76
2021/07/17 04:04:14;;;;;;;19.33;17.33;;;;;;;21.09;79.30;100445.72;128242;1097;24206;-75
2021/07/17 04:06:44;;;;;;;21.20;17.98;;;;;;;21.14;79.23;100445.81;128265;1098;22418;-75
2021/07/17 04:09:14;;;;;;;20.73;18.53;;;;;;;21.19;79.20;100445.09;127997;1098;22428;-75
2021/07/17 04:11:43;;;;;;;20.78;18.60;;;;;;;21.22;79.21;100435.75;128240;1098;24215;-75
2021/07/17 04:14:13;;;;;;;22.70;17.90;;;;;;;21.26;78.87;100435.06;128269;1097;22376;-75
2021/07/17 04:16:43;;;;;;;22.90;18.15;;;;;;;21.30;78.97;100440.78;128248;1098;23020;-76
2021/07/17 04:19:12;;;;;;;19.38;17.43;;;;;;;21.36;78.76;100439.88;128237;1098;22372;-75
2021/07/17 04:21:42;;;;;;;23.93;20.63;;;;;;;21.42;78.76;100436.21;128248;1098;22383;-75
2021/07/17 04:24:11;;;;;;;25.18;22.20;;;;;;;21.50;78.59;100437.73;128257;1098;24199;-76
2021/07/17 04:26:41;;;;;;;25.45;22.80;;;;;;;21.58;78.72;100442.72;128205;1098;23883;-76
2021/07/17 04:29:11;;;;;;;24.23;20.33;;;;;;;21.62;78.35;100435.81;128240;1097;22396;-76
2021/07/17 04:31:41;;;;;;;28.70;23.45;;;;;;;21.68;78.31;100445.61;128295;1098;24524;-76
2021/07/17 04:34:10;;;;;;;24.58;21.85;;;;;;;21.74;78.11;100438.47;128260;1097;23153;-76
2021/07/17 04:36:40;;;;;;;26.10;22.03;;;;;;;21.78;78.13;100440.44;128290;1098;22362;-76
2021/07/17 04:39:12;;;;;;;28.20;21.37;;;;;;;21.83;77.64;100435.17;128044;1098;22382;-76
2021/07/17 04:41:41;;;;;;;25.20;22.25;;;;;;;21.89;77.66;100429.87;128228;1097;22421;-77
2021/07/17 04:44:11;;;;;;;28.30;22.23;;;;;;;21.95;77.60;100432.41;128273;1098;22378;-76
2021/07/17 04:46:40;;;;;;;30.83;26.28;;;;;;;22.06;77.69;100428.87;128247;1098;22376;-75
2021/07/17 04:49:10;;;;;;;36.33;27.98;;;;;;;22.19;77.59;100432.33;128322;1098;23682;-76
2021/07/17 04:51:39;;;;;;;31.03;27.68;;;;;;;22.29;77.14;100433.34;128256;1098;22375;-76
2021/07/17 04:54:09;;;;;;;31.58;28.05;;;;;;;22.40;76.81;100434.32;128313;1098;22380;-76
2021/07/17 04:56:38;;;;;;;33.30;29.08;;;;;;;22.49;76.72;100432.02;128304;1098;24252;-76
2021/07/17 04:59:08;;;;;;;36.90;28.23;;;;;;;22.52;76.17;100428.84;128252;1098;22400;-76
2021/07/17 05:01:38;;;;;;;36.30;32.03;;;;;;;22.57;75.78;100430.82;128265;1097;22380;-76
2021/07/17 05:04:07;;;;;;;33.18;29.73;;;;;;;22.59;75.65;100425.98;128249;1096;25100;-76
2021/07/17 05:06:37;;;;;;;32.38;28.85;;;;;;;22.62;75.57;100426.31;128212;1098;23119;-76
2021/07/17 05:09:07;;;;;;;36.80;33.10;;;;;;;22.66;75.18;100416.70;128231;1098;22392;-76
2021/07/17 05:11:37;;;;;;;42.40;35.83;;;;;;;22.72;75.44;100415.69;128238;1098;23144;-76
2021/07/17 05:14:06;;;;;;;35.70;29.53;;;;;;;22.81;75.58;100417.98;128230;1098;22391;-75
2021/07/17 05:16:36;;;;;;;39.65;35.48;;;;;;;22.89;75.19;100420.24;128244;1098;22394;-74
2021/07/17 05:19:05;;;;;;;35.43;31.73;;;;;;;22.93;74.95;100416.86;128198;1097;22380;-74
2021/07/17 05:21:36;;;;;;;34.93;31.13;;;;;;;22.98;74.92;100422.30;128205;1098;24499;-75
2021/07/17 05:24:05;;;;;;;38.05;32.40;;;;;;;23.04;74.47;100417.81;128238;1098;25026;-76
2021/07/17 05:26:35;;;;;;;35.38;31.55;;;;;;;23.09;73.76;100420.59;128181;1098;22817;-75
2021/07/17 05:29:05;;;;;;;40.03;35.75;;;;;;;23.13;74.23;100421.72;128209;1098;22393;-75
2021/07/17 05:31:40;;;;;;;42.88;38.38;;;;;;;23.16;74.00;100415.83;128225;1098;22379;-75
2021/07/17 05:34:10;;;;;;;45.35;40.28;;;;;;;23.20;73.59;100418.84;128175;1098;22351;-76
2021/07/17 05:36:40;;;;;;;46.70;41.73;;;;;;;23.23;73.56;100421.84;128206;1098;22400;-75
2021/07/17 05:39:09;;;;;;;47.93;42.73;;;;;;;23.25;73.47;100425.09;128207;1098;24527;-76
2021/07/17 05:41:39;;;;;;;47.63;40.73;;;;;;;23.30;73.77;100435.14;128232;1098;24527;-75
2021/07/17 05:44:09;;;;;;;39.63;35.30;;;;;;;23.32;73.28;100432.18;128207;1098;22379;-76
2021/07/17 05:46:39;;;;;;;32.45;28.95;;;;;;;23.30;73.14;100432.44;128235;1098;22382;-76
2021/07/17 05:49:08;;;;;;;31.50;28.15;;;;;;;23.34;73.18;100440.84;128218;1098;23170;-76
2021/07/17 05:51:38;;;;;;;31.25;28.05;;;;;;;23.38;73.48;100440.08;128026;1098;23538;-76
2021/07/17 05:54:08;;;;;;;35.18;28.30;;;;;;;23.55;73.63;100444.59;128225;1098;24618;-76
2021/07/17 05:56:37;;;;;;;31.60;28.13;;;;;;;23.78;73.26;100449.75;128046;1098;22401;-75
2021/07/17 05:59:07;;;;;;;29.40;26.50;;;;;;;23.95;72.48;100450.48;128223;1098;22392;-75
2021/07/17 06:01:36;;;;;;;27.23;24.28;;;;;;;24.00;71.88;100455.13;128256;1098;22401;-76
2021/07/17 06:04:08;;;;;;;29.03;24.90;;;;;;;24.16;71.74;100459.61;127974;1098;24205;-76
2021/07/17 06:06:37;;;;;;;30.53;27.20;;;;;;;24.35;71.67;100461.93;127959;1098;22389;-75
2021/07/17 06:09:07;;;;;;;31.58;28.15;;;;;;;24.49;70.48;100460.48;127970;1098;22357;-75
2021/07/17 06:11:36;;;;;;;30.65;27.73;;;;;;;24.60;70.60;100461.38;127950;1098;22378;-75
2021/07/17 06:14:06;;;;;;;29.20;26.33;;;;;;;24.83;70.66;100457.50;128000;1098;22381;-75
2021/07/17 06:16:36;;;;;;;30.30;25.58;;;;;;;25.22;70.01;100457.20;127994;1098;22382;-75
2021/07/17 06:19:06;;;;;;;29.20;26.20;;;;;;;25.52;68.19;100459.24;127979;1098;22401;-80
2021/07/17 06:21:36;;;;;;;26.30;23.60;;;;;;;25.69;67.22;100461.73;127684;1101;22454;-75
2021/07/17 06:24:06;;;;;;;25.95;23.20;;;;;;;25.79;66.92;100472.59;127982;1099;22407;-76
2021/07/17 06:26:36;;;;;;;27.55;24.30;;;;;;;25.84;66.41;100472.65;127606;1101;24281;-74
2021/07/17 06:29:14;;;;;;;27.08;24.18;;;;;;;25.91;65.92;100475.11;128191;1100;22409;-78
2021/07/17 06:31:44;;;;;;;23.88;21.48;;;;;;;25.93;65.50;100473.77;127535;1101;24219;-79
2021/07/17 06:34:15;;;;;;;27.28;21.98;;;;;;;26.09;66.23;100481.91;127683;1099;22395;-79
2021/07/17 06:36:44;;;;;;;;;;;;;;;26.35;66.92;100478.16;127726;1101;22414;-78
2021/07/17 06:39:14;;;;;;;22.95;20.83;;;;;;;26.68;65.40;100484.97;127962;1098;21407;-78
2021/07/17 06:41:44;;;;;;;24.30;22.10;;;;;;;26.99;63.10;100480.34;127990;1101;23891;-84
2021/07/17 06:44:15;;;;;;;24.60;22.05;;;;;;;27.08;62.59;100480.58;127780;1101;23895;-79
2021/07/17 06:46:45;;;;;;;21.80;19.83;;;;;;;27.06;61.67;100480.06;127539;1101;22401;-78
2021/07/17 06:49:14;;;;;;;20.88;18.85;;;;;;;26.95;61.45;100479.25;127511;1101;22557;-78
2021/07/17 06:51:44;;;;;;;20.93;18.73;;;;;;;26.94;61.51;100474.11;127607;1100;22498;-78
2021/07/17 06:54:13;;;;;;;20.23;17.97;;;;;;;26.89;61.64;100482.23;127917;1101;22395;-77
2021/07/17 06:56:43;;;;;;;20.83;18.43;;;;;;;26.90;62.04;100481.17;127880;1102;24598;-78
2021/07/17 06:59:13;;;;;;;23.53;18.57;;;;;;;27.19;62.17;100475.97;127566;1101;22397;-78
2021/07/17 07:01:43;;;;;;;23.13;21.13;;;;;;;27.56;61.38;100481.03;127783;1099;24520;-78
2021/07/17 07:04:13;;;;;;;22.97;20.67;;;;;;;27.83;59.96;100482.56;128080;1098;22387;-80
2021/07/17 07:06:43;;;;;;;20.43;18.53;;;;;;;28.07;58.87;100483.50;128253;1098;23330;-81
2021/07/17 07:09:13;;;;;;;24.23;20.65;;;;;;;28.22;58.62;100490.72;128404;1098;23354;-79
2021/07/17 07:11:42;;;;;;;34.28;31.13;;;;;;;28.35;57.97;100483.84;128098;1098;22385;-78
2021/07/17 07:14:12;;;;;;;21.98;19.83;;;;;;;28.30;57.29;100476.55;128277;1098;22372;-78
2021/07/17 07:16:42;;;;;;;22.90;20.70;;;;;;;28.26;57.12;100480.94;128304;1098;22376;-78
2021/07/17 07:19:12;;;;;;;24.23;19.93;;;;;;;28.17;57.32;100482.63;128263;1098;24830;-78
2021/07/17 07:21:41;;;;;;;21.00;18.80;;;;;;;28.01;57.08;100481.91;128390;1098;22363;-78
2021/07/17 07:24:11;;;;;;;22.15;20.00;;;;;;;27.82;57.58;100480.92;128093;1098;23141;-79
2021/07/17 07:26:41;;;;;;;21.60;19.40;;;;;;;27.61;57.50;100480.18;128010;1101;22411;-78
2021/07/17 07:29:11;;;;;;;21.20;19.03;;;;;;;27.47;58.22;100484.59;128007;1101;22392;-78
2021/07/17 07:31:41;;;;;;;22.70;19.70;;;;;;;27.34;58.92;100491.41;128066;1101;22840;-78
2021/07/17 07:34:10;;;;;;;22.15;19.93;;;;;;;27.37;59.25;100493.57;127979;1101;24605;-78
2021/07/17 07:36:40;;;;;;;22.00;19.98;;;;;;;27.39;59.03;100488.66;127663;1100;24636;-79
2021/07/17 07:39:09;;;;;;;21.03;19.07;;;;;;;27.39;58.60;100494.09;128075;1101;24537;-79
2021/07/17 07:41:40;;;;;;;22.08;19.75;;;;;;;27.38;58.35;100498.70;128259;1101;22964;-79
2021/07/17 07:44:10;;;;;;;21.45;19.35;;;;;;;27.39;58.33;100499.52;127977;1098;24238;-78
2021/07/17 07:46:40;;;;;;;20.03;17.60;;;;;;;27.30;58.37;100502.00;128359;1098;22379;-79
2021/07/17 07:49:12;;;;;;;18.95;17.03;;;;;;;27.24;58.78;100494.95;128242;1097;22390;-84
2021/07/17 07:51:42;;;;;;;19.58;17.60;;;;;;;27.18;58.73;100496.05;128378;1098;24297;-78
2021/07/17 07:54:12;;;;;;;19.83;18.08;;;;;;;27.15;58.76;100491.98;128288;1098;22824;-78
2021/07/17 07:56:42;;;;;;;19.50;16.53;;;;;;;27.13;59.07;100494.17;128090;1098;24512;-79
2021/07/17 07:59:12;;;;;;;17.97;15.97;;;;;;;27.32;59.52;100496.28;128299;1098;22471;-78
2021/07/17 08:01:41;;;;;;;18.15;15.53;;;;;;;27.71;59.20;100492.89;128212;1098;22401;-79
2021/07/17 08:04:11;;;;;;;19.55;17.65;;;;;;;28.21;58.11;100497.26;128436;1098;22407;-80
2021/07/17 08:06:41;;;;;;;16.87;15.17;;;;;;;28.76;56.73;100489.81;128381;1098;22404;-79
2021/07/17 08:09:12;;;;;;;20.03;15.13;;;;;;;29.21;55.18;100503.27;128086;1098;22422;-79
2021/07/17 08:11:41;;;;;;;17.88;14.20;;;;;;;29.55;53.94;100503.14;128341;1098;22474;-79
2021/07/17 08:14:11;;;;;;;16.33;14.68;;;;;;;29.78;53.49;100506.96;128049;1101;22506;-79
2021/07/17 08:16:41;;;;;;;16.20;14.60;;;;;;;30.11;53.27;100493.45;128242;1101;22393;-79
2021/07/17 08:19:10;;;;;;;17.25;14.90;;;;;;;30.46;52.11;100505.77;128049;1101;22404;-78
2021/07/17 08:21:40;;;;;;;;;;;;;;;30.77;50.71;100508.81;127962;1101;22399;-79
2021/07/17 08:24:10;;;;;;;15.75;14.25;;;;;;;30.90;50.38;100505.30;127646;1101;22408;-79
2021/07/17 08:26:40;;;;;;;17.88;13.13;;;;;;;31.18;49.60;100510.80;127944;1101;22404;-80
2021/07/17 08:29:10;;;;;;;12.80;11.60;;;;;;;31.50;48.39;100506.40;127830;1101;22670;-80
2021/07/17 08:31:40;;;;;;;14.97;13.57;;;;;;;31.60;47.33;100506.19;127941;1101;22428;-79
2021/07/17 08:34:10;;;;;;;13.85;12.38;;;;;;;31.68;47.02;100499.19;128267;1101;23174;-79
2021/07/17 08:36:39;;;;;;;17.58;13.60;;;;;;;31.64;45.72;100502.53;128067;1101;24563;-79
2021/07/17 08:39:09;;;;;;;12.58;11.28;;;;;;;31.81;46.25;100499.16;128042;1098;22909;-80
2021/07/17 08:41:44;;;;;;;12.73;11.53;;;;;;;32.10;45.32;100501.55;128115;1098;25153;-79
2021/07/17 08:44:17;;;;;;;13.13;11.58;;;;;;;32.03;45.14;100505.84;128344;1098;22535;-78
2021/07/17 08:46:47;;;;;;;17.98;13.00;;;;;;;31.79;45.35;100501.41;128082;1098;22444;-78
2021/07/17 08:49:17;;;;;;;16.83;12.53;;;;;;;31.59;45.20;100502.66;128287;1098;22423;-79
2021/07/17 08:51:47;;;;;;;16.05;11.90;;;;;;;31.28;45.66;100499.67;128204;1098;24518;-79
2021/07/17 08:54:17;;;;;;;26.95;12.03;;;;;;;31.14;46.95;100493.41;128115;1098;22398;-79
2021/07/17 08:56:49;;;;;;;10.67;9.57;;;;;;;31.27;46.99;100497.27;128289;1098;22386;-79
2021/07/17 08:59:19;;;;;;;13.40;10.83;;;;;;;31.67;46.57;100490.20;128182;1098;22395;-78
2021/07/17 09:01:50;;;;;;;13.68;10.70;;;;;;;32.06;45.44;100497.03;128109;1096;22702;-78
2021/07/17 09:04:27;;;;;;;12.88;11.48;;;;;;;32.30;44.13;100499.47;128097;1098;22382;-79
2021/07/17 09:06:56;;;;;;;14.97;12.40;;;;;;;32.44;43.18;100500.24;128056;1101;22385;-79
2021/07/17 09:09:36;;;;;;;13.73;10.07;;;;;;;32.33;43.19;100505.13;128216;1101;22404;-79
2021/07/17 09:12:34;;;;;;;13.20;8.88;;;;;;;32.07;44.21;100501.37;128254;1100;23358;-79
2021/07/17 09:15:17;;;;;;;11.13;9.35;;;;;;;31.73;44.11;100499.09;127663;1101;22450;-79
2021/07/17 09:17:53;;;;;;;11.00;9.83;;;;;;;31.31;45.30;100496.34;127847;1101;23166;-79
2021/07/17 09:20:23;;;;;;;12.80;11.55;;;;;;;31.27;45.24;100498.06;127989;1101;22397;-80
2021/07/17 09:23:00;;;;;;;11.18;9.35;;;;;;;31.39;45.67;100494.88;127905;1101;23247;-80
2021/07/17 09:25:42;;;;;;;10.10;9.10;;;;;;;31.63;45.05;100491.92;127934;1101;22821;-79
2021/07/17 09:28:38;;;;;;;14.73;13.18;;;;;;;32.05;44.89;100492.66;128394;1101;22662;-80
2021/07/17 09:31:09;;;;;;;23.02;20.90;;;;;;;32.17;43.61;100482.00;127874;1101;22375;-79
2021/07/17 09:33:39;;;;;;;16.50;11.10;;;;;;;32.34;43.61;100484.05;128029;1101;22404;-80
2021/07/17 09:36:16;;;;;;;19.00;10.53;;;;;;;32.71;43.36;100484.81;127681;1101;22375;-80
2021/07/17 09:38:51;;;;;;;11.00;9.43;;;;;;;32.95;41.88;100485.25;127189;1105;22433;-79
2021/07/17 09:41:22;;;;;;;12.63;9.58;;;;;;;32.80;41.62;100478.27;127856;1104;22758;-80
2021/07/17 09:44:03;;;;;;;14.55;9.48;;;;;;;32.43;42.18;100474.03;127850;1104;22406;-80
2021/07/17 09:46:33;;;;;;;10.30;8.85;;;;;;;32.32;42.57;100476.18;127568;1105;22396;-81
2021/07/17 09:49:04;;;;;;;9.97;8.70;;;;;;;32.43;42.09;100465.83;127276;1105;24524;-79
2021/07/17 09:51:35;;;;;;;9.80;8.80;;;;;;;32.43;41.97;100462.29;127227;1102;25746;-79
2021/07/17 09:54:06;;;;;;;13.18;9.03;;;;;;;32.67;42.12;100462.75;127666;1101;22718;-79
2021/07/17 09:56:40;;;;;;;11.80;9.25;;;;;;;32.98;41.96;100461.95;127924;1101;23948;-79
2021/07/17 09:59:13;;;;;;;15.08;10.40;;;;;;;33.14;41.22;100457.67;128044;1101;22378;-80
2021/07/17 10:01:43;;;;;;;13.95;9.78;;;;;;;33.27;41.09;100459.49;128043;1100;22379;-79
2021/07/17 10:04:16;;;;;;;12.93;10.95;;;;;;;33.31;41.03;100462.40;127989;1101;22411;-79
2021/07/17 10:06:59;;;;;;;12.23;10.00;;;;;;;33.27;41.23;100459.49;128021;1101;24202;-79
2021/07/17 10:09:36;;;;;;;13.58;11.88;;;;;;;33.11;41.19;100452.84;128584;1098;22670;-80
2021/07/17 10:12:08;;;;;;;20.93;11.63;;;;;;;32.97;41.50;100454.88;128153;1098;22388;-80
2021/07/17 10:14:41;;;;;;;12.78;10.05;;;;;;;32.72;42.01;100451.69;128118;1101;22401;-79
2021/07/17 10:17:15;;;;;;;13.40;9.88;;;;;;;32.32;42.21;100453.48;128318;1101;22692;-80
2021/07/17 10:19:45;;;;;;;11.38;10.13;;;;;;;32.05;42.92;100438.81;128344;1101;22406;-78
2021/07/17 10:22:15;;;;;;;10.17;9.07;;;;;;;32.07;42.69;100438.52;128040;1101;22416;-78
2021/07/17 10:24:45;;;;;;;11.25;9.43;;;;;;;32.21;42.58;100438.45;128086;1101;22389;-81
2021/07/17 10:27:15;;;;;;;13.50;10.28;;;;;;;32.26;42.36;100435.61;128301;1101;22639;-80
2021/07/17 10:29:45;;;;;;;14.93;9.47;;;;;;;32.24;42.68;100430.44;128216;1098;22391;-77
2021/07/17 10:32:15;;;;;;;15.95;14.38;;;;;;;32.33;42.27;100433.25;127974;1098;22371;-78
2021/07/17 10:34:46;;;;;;;12.63;9.50;;;;;;;32.42;41.10;100430.55;128182;1098;22372;-78
2021/07/17 10:37:30;;;;;;;17.50;11.98;;;;;;;32.37;41.17;100431.50;128266;1098;22372;-78
2021/07/17 10:40:10;;;;;;;24.73;11.00;;;;;;;32.12;42.20;100427.45;128054;1098;22408;-77
2021/07/17 10:42:48;;;;;;;12.85;9.75;;;;;;;32.02;41.97;100427.70;128292;1098;22370;-77
2021/07/17 10:45:44;;;;;;;14.63;8.83;;;;;;;31.82;41.65;100418.02;128244;1098;22376;-78
2021/07/17 10:48:31;;;;;;;8.83;7.93;;;;;;;31.56;41.96;100417.81;128274;1096;22821;-78
2021/07/17 10:51:22;;;;;;;10.38;8.75;;;;;;;31.31;42.64;100417.20;128272;1098;22373;-77
2021/07/17 10:53:55;;;;;;;12.03;8.15;;;;;;;31.33;42.85;100412.28;128116;1098;23530;-77
2021/07/17 10:56:48;;;;;;;13.05;8.40;;;;;;;31.39;42.29;100410.27;128485;1098;22397;-78
2021/07/17 10:59:17;;;;;;;12.75;8.83;;;;;;;31.33;42.34;100406.02;128126;1101;22385;-78
2021/07/17 11:02:04;;;;;;;11.55;9.05;;;;;;;31.26;42.11;100411.05;128025;1101;24528;-77
2021/07/17 11:04:55;;;;;;;9.58;7.95;;;;;;;31.19;42.51;100406.01;128030;1101;22379;-76
2021/07/17 11:07:50;;;;;;;9.98;8.98;;;;;;;31.10;42.51;100405.09;128041;1101;22396;-78
2021/07/17 11:10:20;;;;;;;11.28;9.03;;;;;;;30.85;43.29;100409.12;127691;1101;22385;-77
2021/07/17 11:12:55;;;;;;;14.00;9.60;;;;;;;30.67;43.77;100402.62;128050;1101;22381;-77
2021/07/17 11:15:24;;;;;;;11.95;9.40;;;;;;;30.63;44.34;100401.61;127605;1101;22372;-77
2021/07/17 11:17:54;;;;;;;15.28;9.65;;;;;;;30.58;44.11;100399.77;127975;1101;22375;-77
2021/07/17 11:20:35;;;;;;;10.50;9.23;;;;;;;30.46;44.10;100397.53;127621;1101;24202;-76
2021/07/17 11:23:17;;;;;;;13.83;8.20;;;;;;;30.30;44.55;100390.73;127663;1101;23402;-77